sensor_id;sensor_type;location;lat;lon;timestamp;pressure;altitude;pressure_sealevel;temperature;humidity
8501;BME280;4288;48.484;10.024;2023-02-21T00:02:44;96067.53;;;1.63;nan
8501;BME280;4288;48.484;10.024;2023-02-21T00:05:29;96067.69;;;1.67;nan
8501;BME280;4288;48.484;10.024;2023-02-21T00:08:13;96069.19;;;1.51;nan
8501;BME280;4288;48.484;10.024;2023-02-21T00:10:58;96076.28;;;1.33;nan
8501;BME280;4288;48.484;10.024;2023-02-21T00:13:43;96071.78;;;1.25;nan
8501;BME280;4288;48.484;10.024;2023-02-21T00:16:27;96069.34;;;1.46;nan
8501;BME280;4288;48.484;10.024;2023-02-21T00:19:14;96071.38;;;1.49;nan
8501;BME280;4288;48.484;10.024;2023-02-21T00:21:58;96059.91;;;1.62;nan
8501;BME280;4288;48.484;10.024;2023-02-21T00:24:43;96064.84;;;1.46;nan
8501;BME280;4288;48.484;10.024;2023-02-21T00:27:27;96059.69;;;1.07;nan
8501;BME280;4288;48.484;10.024;2023-02-21T00:30:14;96048.84;;;1.09;nan
8501;BME280;4288;48.484;10.024;2023-02-21T00:32:59;96041.28;;;1.24;nan
8501;BME280;4288;48.484;10.024;2023-02-21T00:35:45;96048.09;;;1.17;nan
8501;BME280;4288;48.484;10.024;2023-02-21T00:38:29;96044.38;;;1.35;nan
8501;BME280;4288;48.484;10.024;2023-02-21T00:41:14;96040.03;;;1.22;nan
8501;BME280;4288;48.484;10.024;2023-02-21T00:43:59;96040.66;;;1.19;nan
8501;BME280;4288;48.484;10.024;2023-02-21T00:46:43;96034.94;;;1.25;nan
8501;BME280;4288;48.484;10.024;2023-02-21T00:49:28;96032.50;;;1.63;nan
8501;BME280;4288;48.484;10.024;2023-02-21T00:52:14;96041.31;;;1.84;nan
8501;BME280;4288;48.484;10.024;2023-02-21T00:54:58;96042.88;;;1.85;nan
8501;BME280;4288;48.484;10.024;2023-02-21T00:57:43;96030.72;;;2.27;nan
8501;BME280;4288;48.484;10.024;2023-02-21T01:00:28;96033.47;;;2.47;nan
8501;BME280;4288;48.484;10.024;2023-02-21T01:03:12;96036.41;;;2.54;nan
8501;BME280;4288;48.484;10.024;2023-02-21T01:05:57;96033.63;;;2.51;nan
8501;BME280;4288;48.484;10.024;2023-02-21T01:08:45;96028.91;;;2.65;nan
8501;BME280;4288;48.484;10.024;2023-02-21T01:11:30;96032.69;;;2.55;nan
8501;BME280;4288;48.484;10.024;2023-02-21T01:14:15;96020.16;;;2.35;nan
8501;BME280;4288;48.484;10.024;2023-02-21T01:17:00;96030.28;;;2.16;nan
8501;BME280;4288;48.484;10.024;2023-02-21T01:19:44;96024.25;;;2.16;nan
8501;BME280;4288;48.484;10.024;2023-02-21T01:22:29;96029.66;;;2.11;nan
8501;BME280;4288;48.484;10.024;2023-02-21T01:25:16;96023.81;;;1.97;nan
8501;BME280;4288;48.484;10.024;2023-02-21T01:28:01;96028.94;;;1.93;nan
8501;BME280;4288;48.484;10.024;2023-02-21T01:30:46;96031.41;;;1.55;nan
8501;BME280;4288;48.484;10.024;2023-02-21T01:33:36;96025.06;;;1.65;nan
8501;BME280;4288;48.484;10.024;2023-02-21T01:36:21;96032.16;;;1.39;nan
8501;BME280;4288;48.484;10.024;2023-02-21T01:39:06;96021.66;;;1.47;nan
8501;BME280;4288;48.484;10.024;2023-02-21T01:41:52;96017.31;;;1.68;nan
8501;BME280;4288;48.484;10.024;2023-02-21T01:44:39;96018.41;;;1.59;nan
8501;BME280;4288;48.484;10.024;2023-02-21T01:47:25;96016.69;;;1.37;nan
8501;BME280;4288;48.484;10.024;2023-02-21T01:50:20;96009.84;;;1.28;nan
8501;BME280;4288;48.484;10.024;2023-02-21T01:53:09;96013.25;;;1.20;nan
8501;BME280;4288;48.484;10.024;2023-02-21T01:55:59;96010.78;;;1.15;nan
8501;BME280;4288;48.484;10.024;2023-02-21T01:58:48;96002.41;;;1.21;nan
8501;BME280;4288;48.484;10.024;2023-02-21T02:01:45;95999.16;;;1.07;nan
8501;BME280;4288;48.484;10.024;2023-02-21T02:04:31;95996.94;;;0.92;nan
8501;BME280;4288;48.484;10.024;2023-02-21T02:07:17;95997.56;;;0.89;nan
8501;BME280;4288;48.484;10.024;2023-02-21T02:10:04;95994.25;;;0.75;nan
8501;BME280;4288;48.484;10.024;2023-02-21T02:16:00;95995.00;;;0.67;nan
8501;BME280;4288;48.484;10.024;2023-02-21T02:19:01;95989.63;;;0.80;nan
8501;BME280;4288;48.484;10.024;2023-02-21T02:22:18;95988.53;;;0.73;nan
8501;BME280;4288;48.484;10.024;2023-02-21T02:25:26;95987.78;;;0.81;nan
8501;BME280;4288;48.484;10.024;2023-02-21T02:28:28;95982.06;;;0.79;nan
8501;BME280;4288;48.484;10.024;2023-02-21T02:31:30;95983.78;;;0.83;nan
8501;BME280;4288;48.484;10.024;2023-02-21T02:34:46;95985.91;;;0.73;nan
8501;BME280;4288;48.484;10.024;2023-02-21T02:37:21;95980.31;;;0.74;nan
8501;BME280;4288;48.484;10.024;2023-02-21T02:39:58;95981.63;;;0.85;nan
8501;BME280;4288;48.484;10.024;2023-02-21T02:42:42;95980.25;;;0.97;nan
8501;BME280;4288;48.484;10.024;2023-02-21T02:45:18;95973.69;;;0.77;nan
8501;BME280;4288;48.484;10.024;2023-02-21T02:47:53;95976.69;;;1.01;nan
8501;BME280;4288;48.484;10.024;2023-02-21T02:50:23;95980.28;;;1.22;nan
8501;BME280;4288;48.484;10.024;2023-02-21T02:52:54;95976.09;;;1.55;nan
8501;BME280;4288;48.484;10.024;2023-02-21T02:55:34;95979.69;;;1.42;nan
8501;BME280;4288;48.484;10.024;2023-02-21T02:58:03;95976.72;;;1.27;nan
8501;BME280;4288;48.484;10.024;2023-02-21T03:00:34;95974.09;;;1.27;nan
8501;BME280;4288;48.484;10.024;2023-02-21T03:03:33;95969.41;;;1.15;nan
8501;BME280;4288;48.484;10.024;2023-02-21T03:06:18;95979.16;;;1.06;nan
8501;BME280;4288;48.484;10.024;2023-02-21T03:08:55;95970.34;;;1.02;nan
8501;BME280;4288;48.484;10.024;2023-02-21T03:11:24;95973.59;;;0.99;nan
8501;BME280;4288;48.484;10.024;2023-02-21T03:13:56;95965.31;;;0.75;nan
8501;BME280;4288;48.484;10.024;2023-02-21T03:16:28;95973.19;;;0.66;nan
8501;BME280;4288;48.484;10.024;2023-02-21T03:19:01;95968.06;;;0.61;nan
8501;BME280;4288;48.484;10.024;2023-02-21T03:21:36;95969.38;;;0.81;nan
8501;BME280;4288;48.484;10.024;2023-02-21T03:24:05;95968.28;;;0.73;nan
8501;BME280;4288;48.484;10.024;2023-02-21T03:26:36;95972.13;;;0.67;nan
8501;BME280;4288;48.484;10.024;2023-02-21T03:29:04;95972.13;;;0.67;nan
8501;BME280;4288;48.484;10.024;2023-02-21T03:31:38;95972.22;;;0.54;nan
8501;BME280;4288;48.484;10.024;2023-02-21T03:34:07;95975.28;;;0.47;nan
8501;BME280;4288;48.484;10.024;2023-02-21T03:36:36;95970.44;;;0.32;nan
8501;BME280;4288;48.484;10.024;2023-02-21T03:39:04;95972.88;;;0.59;nan
8501;BME280;4288;48.484;10.024;2023-02-21T03:41:31;95970.88;;;0.65;nan
8501;BME280;4288;48.484;10.024;2023-02-21T03:43:58;95973.84;;;0.72;nan
8501;BME280;4288;48.484;10.024;2023-02-21T03:46:25;95978.91;;;0.60;nan
8501;BME280;4288;48.484;10.024;2023-02-21T03:48:52;95980.13;;;0.54;nan
8501;BME280;4288;48.484;10.024;2023-02-21T03:51:19;95974.53;;;0.47;nan
8501;BME280;4288;48.484;10.024;2023-02-21T03:53:48;95979.50;;;0.48;nan
8501;BME280;4288;48.484;10.024;2023-02-21T03:56:15;95976.25;;;0.51;nan
8501;BME280;4288;48.484;10.024;2023-02-21T03:58:42;95981.06;;;0.19;nan
8501;BME280;4288;48.484;10.024;2023-02-21T04:01:09;95975.75;;;0.10;nan
8501;BME280;4288;48.484;10.024;2023-02-21T04:03:36;95965.69;;;0.04;nan
8501;BME280;4288;48.484;10.024;2023-02-21T04:06:04;95971.41;;;0.06;nan
8501;BME280;4288;48.484;10.024;2023-02-21T04:08:31;95970.78;;;0.09;nan
8501;BME280;4288;48.484;10.024;2023-02-21T04:10:59;95963.28;;;0.16;nan
8501;BME280;4288;48.484;10.024;2023-02-21T04:13:26;95970.50;;;0.10;nan
8501;BME280;4288;48.484;10.024;2023-02-21T04:15:53;95968.66;;;0.11;nan
8501;BME280;4288;48.484;10.024;2023-02-21T04:18:21;95976.66;;;0.06;nan
8501;BME280;4288;48.484;10.024;2023-02-21T04:20:48;95971.44;;;0.14;nan
8501;BME280;4288;48.484;10.024;2023-02-21T04:23:17;95972.84;;;0.12;nan
8501;BME280;4288;48.484;10.024;2023-02-21T04:25:44;95970.00;;;0.08;nan
8501;BME280;4288;48.484;10.024;2023-02-21T04:28:12;95978.50;;;0.05;nan
8501;BME280;4288;48.484;10.024;2023-02-21T04:30:40;95975.75;;;0.10;nan
8501;BME280;4288;48.484;10.024;2023-02-21T04:33:07;95974.63;;;0.03;nan
8501;BME280;4288;48.484;10.024;2023-02-21T04:35:34;95970.22;;;-0.11;nan
8501;BME280;4288;48.484;10.024;2023-02-21T04:38:01;95970.53;;;-0.56;nan
8501;BME280;4288;48.484;10.024;2023-02-21T04:40:28;95969.00;;;-0.35;nan
8501;BME280;4288;48.484;10.024;2023-02-21T04:42:55;95968.09;;;-0.31;nan
8501;BME280;4288;48.484;10.024;2023-02-21T04:45:24;95965.22;;;-0.43;nan
8501;BME280;4288;48.484;10.024;2023-02-21T04:47:51;95970.78;;;-0.22;nan
8501;BME280;4288;48.484;10.024;2023-02-21T04:50:18;95966.91;;;-0.25;nan
8501;BME280;4288;48.484;10.024;2023-02-21T04:52:46;95961.72;;;-0.16;nan
8501;BME280;4288;48.484;10.024;2023-02-21T04:55:14;95969.69;;;-0.21;nan
8501;BME280;4288;48.484;10.024;2023-02-21T04:57:41;95971.84;;;-0.23;nan
8501;BME280;4288;48.484;10.024;2023-02-21T05:00:11;95967.91;;;-0.12;nan
8501;BME280;4288;48.484;10.024;2023-02-21T05:02:43;95969.41;;;-0.20;nan
8501;BME280;4288;48.484;10.024;2023-02-21T05:05:11;95964.81;;;-0.14;nan
8501;BME280;4288;48.484;10.024;2023-02-21T05:07:41;95965.06;;;-0.24;nan
8501;BME280;4288;48.484;10.024;2023-02-21T05:10:09;95961.72;;;-0.16;nan
8501;BME280;4288;48.484;10.024;2023-02-21T05:12:37;95966.19;;;-0.17;nan
8501;BME280;4288;48.484;10.024;2023-02-21T05:15:05;95959.38;;;-0.18;nan
8501;BME280;4288;48.484;10.024;2023-02-21T05:17:33;95963.06;;;-0.19;nan
8501;BME280;4288;48.484;10.024;2023-02-21T05:20:02;95963.41;;;-0.12;nan
8501;BME280;4288;48.484;10.024;2023-02-21T05:22:29;95950.28;;;-0.12;nan
8501;BME280;4288;48.484;10.024;2023-02-21T05:24:56;95953.84;;;-0.16;nan
8501;BME280;4288;48.484;10.024;2023-02-21T05:27:23;95950.25;;;-0.20;nan
8501;BME280;4288;48.484;10.024;2023-02-21T05:29:52;95951.06;;;-0.11;nan
8501;BME280;4288;48.484;10.024;2023-02-21T05:32:22;95954.09;;;0.05;nan
8501;BME280;4288;48.484;10.024;2023-02-21T05:34:49;95951.13;;;-0.03;nan
8501;BME280;4288;48.484;10.024;2023-02-21T05:37:17;95947.25;;;-0.05;nan
8501;BME280;4288;48.484;10.024;2023-02-21T05:39:45;95946.44;;;-0.14;nan
8501;BME280;4288;48.484;10.024;2023-02-21T05:42:13;95949.16;;;-0.19;nan
8501;BME280;4288;48.484;10.024;2023-02-21T05:44:42;95942.53;;;-0.17;nan
8501;BME280;4288;48.484;10.024;2023-02-21T05:47:09;95939.75;;;-0.20;nan
8501;BME280;4288;48.484;10.024;2023-02-21T05:49:36;95943.81;;;-0.14;nan
8501;BME280;4288;48.484;10.024;2023-02-21T05:52:04;95933.78;;;-0.12;nan
8501;BME280;4288;48.484;10.024;2023-02-21T05:54:32;95942.31;;;-0.29;nan
8501;BME280;4288;48.484;10.024;2023-02-21T05:56:59;95944.34;;;-0.26;nan
8501;BME280;4288;48.484;10.024;2023-02-21T05:59:26;95948.59;;;-0.08;nan
8501;BME280;4288;48.484;10.024;2023-02-21T06:01:54;95945.78;;;0.11;nan
8501;BME280;4288;48.484;10.024;2023-02-21T06:04:21;95935.16;;;0.25;nan
8501;BME280;4288;48.484;10.024;2023-02-21T06:06:49;95942.69;;;0.57;nan
8501;BME280;4288;48.484;10.024;2023-02-21T06:09:17;95939.22;;;0.87;nan
8501;BME280;4288;48.484;10.024;2023-02-21T06:11:46;95941.66;;;0.75;nan
8501;BME280;4288;48.484;10.024;2023-02-21T06:14:15;95947.56;;;0.89;nan
8501;BME280;4288;48.484;10.024;2023-02-21T06:16:44;95948.22;;;1.12;nan
8501;BME280;4288;48.484;10.024;2023-02-21T06:19:12;95948.16;;;0.86;nan
8501;BME280;4288;48.484;10.024;2023-02-21T06:21:41;95948.25;;;1.29;nan
8501;BME280;4288;48.484;10.024;2023-02-21T06:24:10;95941.41;;;1.45;nan
8501;BME280;4288;48.484;10.024;2023-02-21T06:26:38;95944.78;;;1.71;nan
8501;BME280;4288;48.484;10.024;2023-02-21T06:29:07;95943.59;;;2.15;nan
8501;BME280;4288;48.484;10.024;2023-02-21T06:31:34;95943.25;;;2.25;nan
8501;BME280;4288;48.484;10.024;2023-02-21T06:34:02;95949.50;;;2.12;nan
8501;BME280;4288;48.484;10.024;2023-02-21T06:36:29;95948.44;;;2.50;nan
8501;BME280;4288;48.484;10.024;2023-02-21T06:38:57;95939.66;;;2.67;nan
8501;BME280;4288;48.484;10.024;2023-02-21T06:41:27;95936.97;;;2.76;nan
8501;BME280;4288;48.484;10.024;2023-02-21T06:43:56;95945.09;;;2.91;nan
8501;BME280;4288;48.484;10.024;2023-02-21T06:46:28;95939.31;;;2.98;nan
8501;BME280;4288;48.484;10.024;2023-02-21T06:48:55;95944.31;;;3.20;nan
8501;BME280;4288;48.484;10.024;2023-02-21T06:51:22;95937.34;;;3.36;nan
8501;BME280;4288;48.484;10.024;2023-02-21T06:53:55;95949.97;;;3.51;nan
8501;BME280;4288;48.484;10.024;2023-02-21T06:56:23;95948.59;;;3.66;nan
8501;BME280;4288;48.484;10.024;2023-02-21T06:58:50;95957.47;;;3.82;nan
8501;BME280;4288;48.484;10.024;2023-02-21T07:01:17;95952.53;;;3.92;nan
8501;BME280;4288;48.484;10.024;2023-02-21T07:03:46;95962.06;;;4.05;nan
8501;BME280;4288;48.484;10.024;2023-02-21T07:06:13;95957.63;;;3.97;nan
8501;BME280;4288;48.484;10.024;2023-02-21T07:08:41;95955.97;;;3.93;nan
8501;BME280;4288;48.484;10.024;2023-02-21T07:11:08;95969.06;;;3.89;nan
8501;BME280;4288;48.484;10.024;2023-02-21T07:13:35;95963.03;;;4.01;nan
8501;BME280;4288;48.484;10.024;2023-02-21T07:16:04;95964.38;;;4.07;nan
8501;BME280;4288;48.484;10.024;2023-02-21T07:18:32;95970.56;;;4.11;nan
8501;BME280;4288;48.484;10.024;2023-02-21T07:21:00;95974.31;;;4.22;nan
8501;BME280;4288;48.484;10.024;2023-02-21T07:23:27;95967.94;;;4.23;nan
8501;BME280;4288;48.484;10.024;2023-02-21T07:25:54;95969.88;;;4.46;nan
8501;BME280;4288;48.484;10.024;2023-02-21T07:28:21;95971.31;;;4.80;nan
8501;BME280;4288;48.484;10.024;2023-02-21T07:30:48;95974.16;;;4.63;nan
8501;BME280;4288;48.484;10.024;2023-02-21T07:33:15;95984.34;;;4.85;nan
8501;BME280;4288;48.484;10.024;2023-02-21T07:35:43;95989.19;;;4.95;nan
8501;BME280;4288;48.484;10.024;2023-02-21T07:38:19;95989.50;;;5.06;nan
8501;BME280;4288;48.484;10.024;2023-02-21T07:40:46;95987.84;;;5.01;nan
8501;BME280;4288;48.484;10.024;2023-02-21T07:43:14;95990.38;;;5.22;nan
8501;BME280;4288;48.484;10.024;2023-02-21T07:45:41;95988.59;;;5.38;nan
8501;BME280;4288;48.484;10.024;2023-02-21T07:48:08;95990.63;;;5.57;nan
8501;BME280;4288;48.484;10.024;2023-02-21T07:50:39;95990.16;;;5.67;nan
8501;BME280;4288;48.484;10.024;2023-02-21T07:53:06;95985.03;;;5.86;nan
8501;BME280;4288;48.484;10.024;2023-02-21T07:55:35;95980.44;;;6.10;nan
8501;BME280;4288;48.484;10.024;2023-02-21T07:58:02;95990.06;;;6.46;nan
8501;BME280;4288;48.484;10.024;2023-02-21T08:00:30;95990.78;;;6.74;nan
8501;BME280;4288;48.484;10.024;2023-02-21T08:02:58;95984.19;;;7.18;nan
8501;BME280;4288;48.484;10.024;2023-02-21T08:05:25;95983.78;;;7.51;nan
8501;BME280;4288;48.484;10.024;2023-02-21T08:07:52;95979.66;;;7.54;nan
8501;BME280;4288;48.484;10.024;2023-02-21T08:10:24;95989.88;;;7.90;nan
8501;BME280;4288;48.484;10.024;2023-02-21T08:12:53;95987.06;;;8.21;nan
8501;BME280;4288;48.484;10.024;2023-02-21T08:15:21;95979.50;;;8.42;nan
8501;BME280;4288;48.484;10.024;2023-02-21T08:17:49;95988.34;;;8.69;nan
8501;BME280;4288;48.484;10.024;2023-02-21T08:20:17;95985.72;;;8.95;nan
8501;BME280;4288;48.484;10.024;2023-02-21T08:22:45;95991.22;;;9.06;nan
8501;BME280;4288;48.484;10.024;2023-02-21T08:25:13;95997.47;;;9.43;nan
8501;BME280;4288;48.484;10.024;2023-02-21T08:27:41;95990.81;;;9.30;nan
8501;BME280;4288;48.484;10.024;2023-02-21T08:30:13;95985.38;;;9.23;nan
8501;BME280;4288;48.484;10.024;2023-02-21T08:32:42;95989.06;;;9.41;nan
8501;BME280;4288;48.484;10.024;2023-02-21T08:35:14;95986.47;;;9.74;nan
8501;BME280;4288;48.484;10.024;2023-02-21T08:37:44;95991.06;;;10.07;nan
8501;BME280;4288;48.484;10.024;2023-02-21T08:40:12;95988.34;;;10.36;nan
8501;BME280;4288;48.484;10.024;2023-02-21T08:42:39;95985.72;;;10.77;nan
8501;BME280;4288;48.484;10.024;2023-02-21T08:45:07;95990.03;;;10.92;nan
8501;BME280;4288;48.484;10.024;2023-02-21T08:47:36;95992.50;;;11.18;nan
8501;BME280;4288;48.484;10.024;2023-02-21T08:50:05;95983.13;;;10.91;nan
8501;BME280;4288;48.484;10.024;2023-02-21T08:52:32;95982.41;;;11.51;nan
8501;BME280;4288;48.484;10.024;2023-02-21T08:54:59;95981.06;;;11.79;nan
8501;BME280;4288;48.484;10.024;2023-02-21T08:57:26;95987.34;;;12.11;nan
8501;BME280;4288;48.484;10.024;2023-02-21T08:59:53;95989.97;;;12.07;nan
8501;BME280;4288;48.484;10.024;2023-02-21T09:02:23;95989.34;;;12.42;88.26
8501;BME280;4288;48.484;10.024;2023-02-21T09:04:52;95984.78;;;12.53;nan
8501;BME280;4288;48.484;10.024;2023-02-21T09:07:22;95984.06;;;12.98;nan
8501;BME280;4288;48.484;10.024;2023-02-21T09:09:49;95987.91;;;12.83;nan
8501;BME280;4288;48.484;10.024;2023-02-21T09:12:17;95979.78;;;12.48;nan
8501;BME280;4288;48.484;10.024;2023-02-21T09:14:44;95982.16;;;13.20;nan
8501;BME280;4288;48.484;10.024;2023-02-21T09:17:13;95982.16;;;13.13;nan
8501;BME280;4288;48.484;10.024;2023-02-21T09:19:40;95990.94;;;13.38;nan
8501;BME280;4288;48.484;10.024;2023-02-21T09:22:09;95984.00;;;13.72;nan
8501;BME280;4288;48.484;10.024;2023-02-21T09:24:37;95975.88;;;13.90;nan
8501;BME280;4288;48.484;10.024;2023-02-21T09:27:05;95995.50;;;14.70;nan
8501;BME280;4288;48.484;10.024;2023-02-21T09:29:34;95991.47;;;14.30;nan
8501;BME280;4288;48.484;10.024;2023-02-21T09:32:03;95987.66;;;14.93;nan
8501;BME280;4288;48.484;10.024;2023-02-21T09:34:30;95993.56;;;15.22;nan
8501;BME280;4288;48.484;10.024;2023-02-21T09:36:57;95990.81;;;15.73;nan
8501;BME280;4288;48.484;10.024;2023-02-21T09:41:52;95986.13;;;16.14;nan
8501;BME280;4288;48.484;10.024;2023-02-21T09:44:25;95987.38;;;16.06;nan
8501;BME280;4288;48.484;10.024;2023-02-21T09:46:56;95986.38;;;15.56;nan
8501;BME280;4288;48.484;10.024;2023-02-21T09:49:26;95986.22;;;15.26;nan
8501;BME280;4288;48.484;10.024;2023-02-21T09:51:54;95985.13;;;16.31;nan
8501;BME280;4288;48.484;10.024;2023-02-21T09:54:29;95985.41;;;16.97;nan
8501;BME280;4288;48.484;10.024;2023-02-21T09:57:01;95983.75;;;17.53;nan
8501;BME280;4288;48.484;10.024;2023-02-21T09:59:29;95982.28;;;17.48;nan
8501;BME280;4288;48.484;10.024;2023-02-21T10:02:15;95977.34;;;16.37;nan
8501;BME280;4288;48.484;10.024;2023-02-21T10:04:58;95979.03;;;16.84;nan
8501;BME280;4288;48.484;10.024;2023-02-21T10:07:37;95983.66;;;16.87;nan
8501;BME280;4288;48.484;10.024;2023-02-21T10:10:14;95979.00;;;17.80;nan
8501;BME280;4288;48.484;10.024;2023-02-21T10:12:49;95976.81;;;17.52;nan
8501;BME280;4288;48.484;10.024;2023-02-21T10:15:42;95978.88;;;18.26;nan
8501;BME280;4288;48.484;10.024;2023-02-21T10:18:21;95981.50;;;17.91;nan
8501;BME280;4288;48.484;10.024;2023-02-21T10:20:54;95975.91;;;18.21;nan
8501;BME280;4288;48.484;10.024;2023-02-21T10:23:26;95979.56;;;17.91;nan
8501;BME280;4288;48.484;10.024;2023-02-21T10:26:00;95975.69;;;18.12;nan
8501;BME280;4288;48.484;10.024;2023-02-21T10:28:30;95973.31;;;17.28;nan
8501;BME280;4288;48.484;10.024;2023-02-21T10:31:02;95976.44;;;17.04;nan
8501;BME280;4288;48.484;10.024;2023-02-21T10:33:31;95972.63;;;17.47;nan
8501;BME280;4288;48.484;10.024;2023-02-21T10:36:09;95978.94;;;18.23;nan
8501;BME280;4288;48.484;10.024;2023-02-21T10:38:37;95980.00;;;17.90;nan
8501;BME280;4288;48.484;10.024;2023-02-21T10:41:07;95970.66;;;17.71;nan
8501;BME280;4288;48.484;10.024;2023-02-21T10:43:37;95988.06;;;17.01;nan
8501;BME280;4288;48.484;10.024;2023-02-21T10:46:14;95974.31;;;18.04;nan
8501;BME280;4288;48.484;10.024;2023-02-21T10:48:47;95981.66;;;17.84;nan
8501;BME280;4288;48.484;10.024;2023-02-21T10:51:27;95975.75;;;18.83;nan
8501;BME280;4288;48.484;10.024;2023-02-21T10:54:19;95971.16;;;19.61;nan
8501;BME280;4288;48.484;10.024;2023-02-21T10:56:49;95968.81;;;18.27;nan
8501;BME280;4288;48.484;10.024;2023-02-21T10:59:22;95968.06;;;18.46;nan
8501;BME280;4288;48.484;10.024;2023-02-21T11:01:52;95970.84;;;19.26;nan
8501;BME280;4288;48.484;10.024;2023-02-21T11:04:27;95963.50;;;19.11;nan
8501;BME280;4288;48.484;10.024;2023-02-21T11:06:58;95955.53;;;19.36;nan
8501;BME280;4288;48.484;10.024;2023-02-21T11:09:35;95956.66;;;19.38;nan
8501;BME280;4288;48.484;10.024;2023-02-21T11:12:21;95957.63;;;19.12;nan
8501;BME280;4288;48.484;10.024;2023-02-21T11:15:15;95954.84;;;19.77;nan
8501;BME280;4288;48.484;10.024;2023-02-21T11:17:43;95948.03;;;20.55;nan
8501;BME280;4288;48.484;10.024;2023-02-21T11:20:18;95948.78;;;19.73;nan
8501;BME280;4288;48.484;10.024;2023-02-21T11:22:47;95940.22;;;20.15;nan
8501;BME280;4288;48.484;10.024;2023-02-21T11:25:23;95932.28;;;20.08;nan
8501;BME280;4288;48.484;10.024;2023-02-21T11:28:03;95935.94;;;21.18;nan
8501;BME280;4288;48.484;10.024;2023-02-21T11:30:34;95933.78;;;20.09;nan
8501;BME280;4288;48.484;10.024;2023-02-21T11:33:04;95926.09;;;19.50;nan
8501;BME280;4288;48.484;10.024;2023-02-21T11:35:34;95925.63;;;19.68;nan
8501;BME280;4288;48.484;10.024;2023-02-21T11:38:06;95931.03;;;19.23;nan
8501;BME280;4288;48.484;10.024;2023-02-21T11:40:42;95916.94;;;19.89;nan
8501;BME280;4288;48.484;10.024;2023-02-21T11:43:24;95910.31;;;20.94;nan
8501;BME280;4288;48.484;10.024;2023-02-21T11:46:04;95909.19;;;20.16;nan
8501;BME280;4288;48.484;10.024;2023-02-21T11:48:41;95909.91;;;20.17;nan
8501;BME280;4288;48.484;10.024;2023-02-21T11:51:24;95902.84;;;21.33;nan
8501;BME280;4288;48.484;10.024;2023-02-21T11:53:52;95900.75;;;20.52;nan
8501;BME280;4288;48.484;10.024;2023-02-21T11:56:30;95888.69;;;21.03;nan
8501;BME280;4288;48.484;10.024;2023-02-21T11:59:10;95891.25;;;21.54;nan
8501;BME280;4288;48.484;10.024;2023-02-21T12:01:55;95888.88;;;21.99;nan
8501;BME280;4288;48.484;10.024;2023-02-21T12:04:53;95878.91;;;20.30;nan
8501;BME280;4288;48.484;10.024;2023-02-21T12:07:35;95877.84;;;21.25;nan
8501;BME280;4288;48.484;10.024;2023-02-21T12:23:46;57099.34;;;21.41;0.00
8501;BME280;4288;48.484;10.024;2023-02-21T12:55:33;163966.28;;;21.43;100.00
8501;BME280;4288;48.484;10.024;2023-02-21T14:06:36;124343.41;;;21.41;0.00
8501;BME280;4288;48.484;10.024;2023-02-21T15:45:28;124294.31;;;21.41;0.00
8501;BME280;4288;48.484;10.024;2023-02-21T16:31:25;95596.00;;;9.66;nan
8501;BME280;4288;48.484;10.024;2023-02-21T16:33:53;95587.72;;;9.31;nan
8501;BME280;4288;48.484;10.024;2023-02-21T16:36:24;95587.56;;;9.10;nan
8501;BME280;4288;48.484;10.024;2023-02-21T16:38:55;95579.97;;;9.12;nan
8501;BME280;4288;48.484;10.024;2023-02-21T16:41:25;95589.78;;;9.01;nan
8501;BME280;4288;48.484;10.024;2023-02-21T16:43:52;95587.28;;;8.82;nan
8501;BME280;4288;48.484;10.024;2023-02-21T16:46:23;95587.63;;;8.77;nan
8501;BME280;4288;48.484;10.024;2023-02-21T16:48:52;95588.66;;;8.65;nan
8501;BME280;4288;48.484;10.024;2023-02-21T16:51:20;95584.19;;;8.40;nan
8501;BME280;4288;48.484;10.024;2023-02-21T16:53:48;95586.31;;;7.97;nan
8501;BME280;4288;48.484;10.024;2023-02-21T16:56:16;95585.22;;;7.72;nan
8501;BME280;4288;48.484;10.024;2023-02-21T16:58:47;95586.31;;;7.45;nan
8501;BME280;4288;48.484;10.024;2023-02-21T17:01:23;95582.97;;;7.26;nan
8501;BME280;4288;48.484;10.024;2023-02-21T17:03:51;95582.38;;;7.36;nan
8501;BME280;4288;48.484;10.024;2023-02-21T17:06:21;95587.44;;;7.44;nan
8501;BME280;4288;48.484;10.024;2023-02-21T17:08:50;95584.75;;;7.41;nan
8501;BME280;4288;48.484;10.024;2023-02-21T17:11:18;95585.28;;;7.27;nan
8501;BME280;4288;48.484;10.024;2023-02-21T17:13:45;95588.81;;;7.12;nan
8501;BME280;4288;48.484;10.024;2023-02-21T17:16:13;95588.03;;;7.08;nan
8501;BME280;4288;48.484;10.024;2023-02-21T17:18:40;95579.84;;;7.20;nan
8501;BME280;4288;48.484;10.024;2023-02-21T17:21:09;95587.63;;;7.32;nan
8501;BME280;4288;48.484;10.024;2023-02-21T17:23:36;95586.94;;;7.35;nan
8501;BME280;4288;48.484;10.024;2023-02-21T17:26:03;95586.47;;;7.07;nan
8501;BME280;4288;48.484;10.024;2023-02-21T17:28:32;95593.53;;;6.77;nan
8501;BME280;4288;48.484;10.024;2023-02-21T17:31:02;95591.00;;;6.42;nan
8501;BME280;4288;48.484;10.024;2023-02-21T17:33:29;95595.66;;;6.26;nan
8501;BME280;4288;48.484;10.024;2023-02-21T17:35:56;95595.28;;;6.08;nan
8501;BME280;4288;48.484;10.024;2023-02-21T17:38:23;95596.81;;;6.28;nan
8501;BME280;4288;48.484;10.024;2023-02-21T17:40:50;95594.50;;;6.27;nan
8501;BME280;4288;48.484;10.024;2023-02-21T17:43:18;95593.50;;;5.97;nan
8501;BME280;4288;48.484;10.024;2023-02-21T17:45:46;95590.84;;;5.97;nan
8501;BME280;4288;48.484;10.024;2023-02-21T17:48:13;95592.41;;;6.17;nan
8501;BME280;4288;48.484;10.024;2023-02-21T17:50:41;95593.88;;;6.14;nan
8501;BME280;4288;48.484;10.024;2023-02-21T17:53:08;95586.50;;;6.04;nan
8501;BME280;4288;48.484;10.024;2023-02-21T17:55:35;95593.59;;;6.00;nan
8501;BME280;4288;48.484;10.024;2023-02-21T17:58:02;95591.69;;;6.01;nan
8501;BME280;4288;48.484;10.024;2023-02-21T18:00:32;95584.84;;;5.81;nan
8501;BME280;4288;48.484;10.024;2023-02-21T18:03:02;95594.94;;;5.75;nan
8501;BME280;4288;48.484;10.024;2023-02-21T18:05:31;95593.72;;;5.54;nan
8501;BME280;4288;48.484;10.024;2023-02-21T18:07:58;95587.84;;;5.64;nan
8501;BME280;4288;48.484;10.024;2023-02-21T18:10:26;95593.03;;;5.76;nan
8501;BME280;4288;48.484;10.024;2023-02-21T18:12:54;95594.13;;;5.56;nan
8501;BME280;4288;48.484;10.024;2023-02-21T18:15:24;95591.91;;;5.58;nan
8501;BME280;4288;48.484;10.024;2023-02-21T18:17:52;95594.59;;;5.11;nan
8501;BME280;4288;48.484;10.024;2023-02-21T18:20:21;95590.91;;;5.31;nan
8501;BME280;4288;48.484;10.024;2023-02-21T18:22:49;95594.16;;;5.40;nan
8501;BME280;4288;48.484;10.024;2023-02-21T18:25:17;95600.22;;;5.25;nan
8501;BME280;4288;48.484;10.024;2023-02-21T18:27:46;95589.59;;;5.40;nan
8501;BME280;4288;48.484;10.024;2023-02-21T18:30:13;95592.66;;;4.49;nan